createdAt,value
2018-07-04T00:00:43.968Z,32.3
2018-07-04T00:01:45.849Z,32.3
2018-07-04T00:02:47.775Z,32.3
2018-07-04T00:03:50.222Z,32.2
2018-07-04T00:04:52.406Z,32.4
2018-07-04T00:05:54.850Z,32.3
2018-07-04T00:06:56.771Z,32.3
2018-07-04T00:07:58.961Z,32.4
2018-07-04T00:09:01.409Z,32.4
2018-07-04T00:10:03.869Z,32.4
2018-07-04T00:11:06.059Z,32.3
2018-07-04T00:12:08.520Z,32.4
2018-07-04T00:13:10.718Z,32.3
2018-07-04T00:14:13.163Z,32.5
2018-07-04T00:15:15.321Z,32.4
2018-07-04T00:16:17.221Z,32.4
2018-07-04T00:17:19.395Z,32.4
2018-07-04T00:18:21.587Z,32.4
2018-07-04T00:19:23.758Z,32.3
2018-07-04T00:20:26.259Z,32.4
2018-07-04T00:21:28.739Z,32.5
2018-07-04T00:22:30.661Z,32.3
2018-07-04T00:23:33.122Z,32.5
2018-07-04T00:24:35.024Z,32.4
2018-07-04T00:25:37.238Z,32.4
2018-07-04T00:26:39.839Z,32.4
2018-07-04T00:27:42.024Z,32.4
2018-07-04T00:28:43.646Z,32.4
2018-07-04T00:29:46.099Z,32.4
2018-07-04T00:30:48.301Z,32.3
2018-07-04T00:31:50.749Z,32.4
2018-07-04T00:32:52.635Z,32.3
2018-07-04T00:33:54.785Z,32.4
2018-07-04T00:34:57.251Z,32.4
2018-07-04T00:35:59.162Z,32.4
2018-07-04T00:37:00.795Z,32.5
2018-07-04T00:38:02.710Z,32.5
2018-07-04T00:39:05.165Z,32.5
2018-07-04T00:40:07.611Z,32.5
2018-07-04T00:41:09.793Z,32.3
2018-07-04T00:42:11.685Z,32.4
2018-07-04T00:43:13.859Z,32.4
2018-07-04T00:44:15.739Z,32.5
2018-07-04T00:45:18.186Z,32.4
2018-07-04T00:46:20.090Z,32.5
2018-07-04T00:47:22.298Z,32.6
2018-07-04T00:48:24.484Z,32.4
2018-07-04T00:49:26.647Z,32.5
2018-07-04T00:50:29.089Z,32.5
2018-07-04T00:51:30.968Z,32.4
2018-07-04T00:52:33.148Z,32.4
2018-07-04T00:53:35.059Z,32.3
2018-07-04T00:54:37.525Z,32.4
2018-07-04T00:55:39.713Z,32.4
2018-07-04T00:56:42.177Z,32.5
2018-07-04T00:57:44.627Z,32.3
2018-07-04T00:58:47.087Z,32.4
2018-07-04T00:59:49.530Z,32.3
2018-07-04T01:00:51.681Z,32.4
2018-07-04T01:01:53.858Z,32.3
2018-07-04T01:02:56.306Z,32.5
2018-07-04T01:03:58.469Z,32.4
2018-07-04T01:05:00.378Z,32.3
2018-07-04T01:06:02.817Z,32.3
2018-07-04T01:07:05.000Z,32.3
2018-07-04T01:08:06.891Z,32.2
2018-07-04T01:09:09.075Z,32.4
2018-07-04T01:10:11.270Z,32.3
2018-07-04T01:11:13.718Z,32.3
2018-07-04T01:12:15.875Z,32.2
2018-07-04T01:13:18.336Z,32.2
2018-07-04T01:14:20.520Z,32.4
2018-07-04T01:15:22.415Z,32.3
2018-07-04T01:16:24.858Z,32.3
2018-07-04T01:17:27.307Z,32.3
2018-07-04T01:18:29.488Z,32.2
2018-07-04T01:19:31.668Z,32.3
2018-07-04T01:20:34.120Z,32.2
2018-07-04T01:21:36.285Z,32.3
2018-07-04T01:22:38.464Z,32.2
2018-07-04T01:23:40.092Z,32.2
2018-07-04T01:24:42.537Z,32.3
2018-07-04T01:25:43.878Z,32.4
2018-07-04T01:26:46.050Z,32.2
2018-07-04T01:27:48.497Z,32.3
2018-07-04T01:28:50.666Z,32.3
2018-07-04T01:29:52.853Z,32.2
2018-07-04T01:30:55.031Z,32.3
2018-07-04T01:31:57.222Z,32.2
2018-07-04T01:32:59.659Z,32.2
2018-07-04T01:34:02.135Z,32.2
2018-07-04T01:35:04.594Z,32.3
2018-07-04T01:36:06.753Z,32.2
2018-07-04T01:37:08.668Z,32.2
2018-07-04T01:38:11.128Z,32.3
2018-07-04T01:39:13.305Z,32.2
2018-07-04T01:40:15.190Z,32.2
2018-07-04T01:41:17.091Z,32.2
2018-07-04T01:42:19.276Z,32.2
2018-07-04T01:43:21.452Z,32.2
2018-07-04T01:44:23.627Z,32.1
2018-07-04T01:45:25.808Z,32.1
2018-07-04T01:46:27.977Z,32.3
2018-07-04T01:47:30.437Z,32.2
2018-07-04T01:48:32.619Z,32.3
2018-07-04T01:49:34.782Z,32.4
2018-07-04T01:50:36.967Z,32.4
2018-07-04T01:51:39.410Z,32.2
2018-07-04T01:52:41.626Z,32.2
2018-07-04T01:53:43.817Z,32.3
2018-07-04T01:54:46.290Z,32.2
2018-07-04T01:55:48.764Z,32.1
2018-07-04T01:56:50.939Z,32.1
2018-07-04T01:57:52.847Z,32.2
2018-07-04T01:58:55.287Z,32.2
2018-07-04T01:59:57.476Z,32.2
2018-07-04T02:00:59.391Z,32.1
2018-07-04T02:02:01.861Z,32.2
2018-07-04T02:03:04.322Z,32.2
2018-07-04T02:04:06.757Z,32.1
2018-07-04T02:05:08.947Z,32.3
2018-07-04T02:06:11.413Z,32.3
2018-07-04T02:07:13.859Z,32.1
2018-07-04T02:08:16.303Z,32.1
2018-07-04T02:09:18.757Z,32.3
2018-07-04T02:10:20.672Z,32.2
2018-07-04T02:11:22.331Z,32.1
2018-07-04T02:12:24.200Z,32.2
2018-07-04T02:13:26.375Z,32.2
2018-07-04T02:14:28.577Z,32.2
2018-07-04T02:15:30.757Z,32.2
2018-07-04T02:16:32.928Z,32.4
2018-07-04T02:17:35.391Z,32.2
2018-07-04T02:18:37.562Z,32.2
2018-07-04T02:19:39.452Z,32.2
2018-07-04T02:20:41.603Z,32.3
2018-07-04T02:21:43.511Z,32.2
2018-07-04T02:22:45.668Z,32.2
2018-07-04T02:23:48.124Z,32.2
2018-07-04T02:24:50.584Z,32.2
2018-07-04T02:25:52.749Z,32.1
2018-07-04T02:26:55.219Z,32.1
2018-07-04T02:27:57.390Z,32.1
2018-07-04T02:28:59.847Z,32.2
2018-07-04T02:30:02.289Z,32.1
2018-07-04T02:31:04.450Z,32.1
2018-07-04T02:32:06.627Z,32.2
2018-07-04T02:33:08.817Z,32.1
2018-07-04T02:34:10.995Z,32.1
2018-07-04T02:35:12.879Z,32.1
2018-07-04T02:36:15.094Z,32.1
2018-07-04T02:37:17.257Z,32.1
2018-07-04T02:38:19.437Z,32.3
2018-07-04T02:39:21.673Z,32.2
2018-07-04T02:40:23.854Z,32.1
2018-07-04T02:41:26.296Z,32.1
2018-07-04T02:42:28.201Z,32
2018-07-04T02:43:30.396Z,32.1
2018-07-04T02:44:32.829Z,32.1
2018-07-04T02:45:34.998Z,32.1
2018-07-04T02:46:37.452Z,32.2
2018-07-04T02:47:39.617Z,32
2018-07-04T02:48:42.070Z,32.1
2018-07-04T02:49:44.529Z,32.1
2018-07-04T02:50:46.671Z,32.1
2018-07-04T02:51:48.817Z,32.1
2018-07-04T02:52:50.753Z,32.2
2018-07-04T02:53:52.661Z,32.3
2018-07-04T02:54:54.828Z,32.1
2018-07-04T02:55:57.017Z,32.1
2018-07-04T02:56:59.469Z,32.1
2018-07-04T02:58:01.949Z,32
2018-07-04T02:59:03.547Z,32
2018-07-04T03:00:06.017Z,32
2018-07-04T03:01:07.427Z,32
2018-07-04T03:02:09.881Z,32.2
2018-07-04T03:03:12.337Z,32.1
2018-07-04T03:04:14.522Z,32.1
2018-07-04T03:05:16.964Z,32
2018-07-04T03:06:19.143Z,32.1
2018-07-04T03:07:21.326Z,32
2018-07-04T03:08:23.498Z,32.1
2018-07-04T03:09:25.938Z,32
2018-07-04T03:10:28.141Z,32
2018-07-04T03:11:29.490Z,32
2018-07-04T03:12:31.370Z,32
2018-07-04T03:13:33.285Z,32
2018-07-04T03:14:35.199Z,32
2018-07-04T03:15:37.638Z,32.1
2018-07-04T03:16:40.092Z,32.1
2018-07-04T03:17:41.966Z,32.1
2018-07-04T03:18:43.897Z,32.1
2018-07-04T03:19:46.370Z,32
2018-07-04T03:20:48.814Z,32.1
2018-07-04T03:21:51.277Z,32
2018-07-04T03:22:53.447Z,32.2
2018-07-04T03:23:55.345Z,32.1
2018-07-04T03:24:57.520Z,32.1
2018-07-04T03:25:59.976Z,32.1
2018-07-04T03:27:01.617Z,32.1
2018-07-04T03:28:04.066Z,32.1
2018-07-04T03:29:06.251Z,32.1
2018-07-04T03:30:08.712Z,32.1
2018-07-04T03:31:11.150Z,32
2018-07-04T03:32:13.083Z,32
2018-07-04T03:33:15.548Z,32
2018-07-04T03:34:18.016Z,32
2018-07-04T03:35:20.171Z,32
2018-07-04T03:36:22.046Z,32
2018-07-04T03:37:23.952Z,32
2018-07-04T03:38:25.822Z,32.1
2018-07-04T03:39:27.997Z,32.1
2018-07-04T03:40:29.899Z,32
2018-07-04T03:41:32.050Z,32.1
2018-07-04T03:42:34.237Z,32.1
2018-07-04T03:43:36.418Z,32
2018-07-04T03:44:38.893Z,32
2018-07-04T03:45:41.058Z,32.1
2018-07-04T03:46:42.665Z,32
2018-07-04T03:47:44.866Z,32
2018-07-04T03:48:47.048Z,32
2018-07-04T03:49:48.992Z,32
2018-07-04T03:50:50.947Z,32
2018-07-04T03:51:52.553Z,32.1
2018-07-04T03:52:54.432Z,32
2018-07-04T03:53:56.631Z,32
2018-07-04T03:54:58.250Z,32
2018-07-04T03:56:00.699Z,31.9
2018-07-04T03:57:03.147Z,31.9
2018-07-04T03:58:05.696Z,32
2018-07-04T03:59:07.345Z,32
2018-07-04T04:00:09.248Z,32
2018-07-04T04:01:11.421Z,31.9
2018-07-04T04:02:13.573Z,32
2018-07-04T04:03:15.472Z,32.1
2018-07-04T04:04:17.906Z,31.9
2018-07-04T04:05:20.356Z,32.1
2018-07-04T04:06:22.285Z,32
2018-07-04T04:07:24.856Z,32
2018-07-04T04:08:27.329Z,32
2018-07-04T04:09:29.772Z,32
2018-07-04T04:10:31.664Z,32
2018-07-04T04:11:33.833Z,32
2018-07-04T04:12:35.463Z,32.1
2018-07-04T04:13:37.616Z,32
2018-07-04T04:14:39.562Z,32.1
2018-07-04T04:15:41.743Z,32
2018-07-04T04:16:43.950Z,32
2018-07-04T04:17:45.859Z,32.1
2018-07-04T04:18:48.312Z,32
2018-07-04T04:19:50.562Z,32.1
2018-07-04T04:20:52.231Z,32.1
2018-07-04T04:21:54.137Z,32
2018-07-04T04:22:55.810Z,32
2018-07-04T04:23:57.994Z,32
2018-07-04T04:25:00.210Z,32
2018-07-04T04:26:02.216Z,32.1
2018-07-04T04:27:04.713Z,32
2018-07-04T04:28:07.320Z,32
2018-07-04T04:29:09.503Z,32
2018-07-04T04:30:11.958Z,32
2018-07-04T04:31:14.421Z,32
2018-07-04T04:32:16.863Z,32
2018-07-04T04:33:19.038Z,32
2018-07-04T04:34:21.507Z,32
2018-07-04T04:35:23.951Z,32
2018-07-04T04:36:26.560Z,32
2018-07-04T04:37:28.999Z,32.1
2018-07-04T04:38:30.924Z,32
2018-07-04T04:39:33.373Z,32
2018-07-04T04:40:35.292Z,32
2018-07-04T04:41:37.736Z,32
2018-07-04T04:42:40.178Z,32.1
2018-07-04T04:43:42.618Z,32
2018-07-04T04:44:45.085Z,31.9
2018-07-04T04:45:47.526Z,32.2
2018-07-04T04:46:49.981Z,32
2018-07-04T04:47:52.426Z,32.1
2018-07-04T04:48:54.868Z,31.9
2018-07-04T04:49:57.328Z,32
2018-07-04T04:50:59.514Z,32
2018-07-04T04:52:01.971Z,32.1
2018-07-04T04:53:04.418Z,32
2018-07-04T04:54:06.880Z,32.2
2018-07-04T04:55:09.058Z,32
2018-07-04T04:56:11.248Z,32.2
2018-07-04T04:57:13.161Z,31.9
2018-07-04T04:58:15.610Z,32.1
2018-07-04T04:59:17.789Z,32.1
2018-07-04T05:00:20.251Z,32
2018-07-04T05:01:22.546Z,32
2018-07-04T05:02:25.121Z,32
2018-07-04T05:03:27.149Z,32.1
2018-07-04T05:04:29.627Z,32.1
2018-07-04T05:05:32.173Z,32.1
2018-07-04T05:06:34.657Z,32
2018-07-04T05:07:37.137Z,32.1
2018-07-04T05:08:39.638Z,32
2018-07-04T05:09:41.815Z,32
2018-07-04T05:10:43.975Z,32
2018-07-04T05:11:46.425Z,32.2
2018-07-04T05:12:48.603Z,32.2
2018-07-04T05:13:50.784Z,32
2018-07-04T05:14:52.962Z,32
2018-07-04T05:15:55.163Z,32
2018-07-04T05:16:57.312Z,32
2018-07-04T05:17:59.764Z,32.1
2018-07-04T05:19:01.940Z,32.1
2018-07-04T05:20:04.128Z,32
2018-07-04T05:21:06.054Z,32.1
2018-07-04T05:22:08.220Z,32.1
2018-07-04T05:23:10.422Z,32.1
2018-07-04T05:24:12.308Z,32.1
2018-07-04T05:25:14.760Z,32.1
2018-07-04T05:26:17.204Z,32
2018-07-04T05:27:19.656Z,32
2018-07-04T05:28:22.087Z,32
2018-07-04T05:29:24.431Z,32.1
2018-07-04T05:30:26.338Z,32
2018-07-04T05:31:28.513Z,32
2018-07-04T05:32:30.682Z,32
2018-07-04T05:33:33.133Z,32.2
2018-07-04T05:34:35.571Z,32
2018-07-04T05:35:37.772Z,32
2018-07-04T05:36:39.918Z,32
2018-07-04T05:37:42.104Z,32.1
2018-07-04T05:38:44.711Z,31.9
2018-07-04T05:39:47.161Z,32
2018-07-04T05:40:49.431Z,32
2018-07-04T05:41:51.668Z,32
2018-07-04T05:42:53.828Z,32.1
2018-07-04T05:43:56.287Z,32
2018-07-04T05:44:58.203Z,32.1
2018-07-04T05:46:00.127Z,32
2018-07-04T05:47:02.328Z,32
2018-07-04T05:48:04.502Z,32
2018-07-04T05:49:06.668Z,32
2018-07-04T05:50:09.194Z,32
2018-07-04T05:51:11.090Z,32
2018-07-04T05:52:13.528Z,31.9
2018-07-04T05:53:15.440Z,32
2018-07-04T05:54:17.622Z,32
2018-07-04T05:55:19.519Z,32.1
2018-07-04T05:56:21.971Z,32.1
2018-07-04T05:57:24.417Z,32
2018-07-04T05:58:27.040Z,31.9
2018-07-04T05:59:29.197Z,32
2018-07-04T06:00:31.637Z,32
2018-07-04T06:01:33.515Z,32.1
2018-07-04T06:02:35.705Z,32.1
2018-07-04T06:03:38.211Z,32.1
2018-07-04T06:04:40.676Z,31.9
2018-07-04T06:05:42.572Z,32
2018-07-04T06:06:45.028Z,32
2018-07-04T06:07:47.501Z,32.1
2018-07-04T06:08:49.692Z,32.1
2018-07-04T06:09:52.156Z,32
2018-07-04T06:10:54.315Z,32
2018-07-04T06:11:56.764Z,32
2018-07-04T06:12:58.687Z,32
2018-07-04T06:14:00.871Z,31.9
2018-07-04T06:15:03.145Z,32
2018-07-04T06:16:05.751Z,31.9
2018-07-04T06:17:08.200Z,32
2018-07-04T06:18:10.648Z,32
2018-07-04T06:19:12.837Z,32
2018-07-04T06:20:15.302Z,32
2018-07-04T06:21:17.737Z,32
2018-07-04T06:22:20.187Z,32.1
2018-07-04T06:23:21.798Z,32
2018-07-04T06:24:24.255Z,32
2018-07-04T06:25:26.425Z,31.9
2018-07-04T06:26:28.607Z,31.9
2018-07-04T06:27:31.062Z,31.8
2018-07-04T06:28:33.234Z,31.9
2018-07-04T06:29:35.668Z,32
2018-07-04T06:30:38.258Z,31.9
2018-07-04T06:31:40.719Z,32
2018-07-04T06:32:43.181Z,32
2018-07-04T06:33:45.372Z,32
2018-07-04T06:34:47.305Z,31.9
2018-07-04T06:35:49.486Z,31.9
2018-07-04T06:36:51.686Z,32.1
2018-07-04T06:37:54.159Z,31.9
2018-07-04T06:38:56.348Z,31.9
2018-07-04T06:39:58.797Z,31.9
2018-07-04T06:41:01.256Z,32
2018-07-04T06:42:03.193Z,32
2018-07-04T06:43:05.651Z,31.9
2018-07-04T06:44:08.106Z,32
2018-07-04T06:45:10.553Z,32
2018-07-04T06:46:12.721Z,32
2018-07-04T06:47:14.912Z,31.9
2018-07-04T06:48:17.367Z,32
2018-07-04T06:49:19.566Z,32
2018-07-04T06:50:22.008Z,32
2018-07-04T06:51:24.461Z,32
2018-07-04T06:52:26.662Z,32
2018-07-04T06:53:29.151Z,32.1
2018-07-04T06:54:31.866Z,31.9
2018-07-04T06:55:34.851Z,31.9
2018-07-04T06:56:37.052Z,32.1
2018-07-04T06:57:39.287Z,32
2018-07-04T06:58:41.448Z,31.9
2018-07-04T06:59:43.923Z,31.9
2018-07-04T07:00:45.872Z,32
2018-07-04T07:01:47.752Z,32
2018-07-04T07:02:49.949Z,32
2018-07-04T07:03:52.398Z,32
2018-07-04T07:04:54.849Z,31.9
2018-07-04T07:05:56.732Z,31.8
2018-07-04T07:06:59.186Z,31.9
2018-07-04T07:08:01.647Z,31.9
2018-07-04T07:09:04.100Z,32
2018-07-04T07:10:06.263Z,31.9
2018-07-04T07:11:08.441Z,32
2018-07-04T07:12:10.639Z,32
2018-07-04T07:13:12.554Z,32
2018-07-04T07:14:15.011Z,32
2018-07-04T07:15:17.461Z,32
2018-07-04T07:16:19.624Z,32
2018-07-04T07:17:21.799Z,31.9
2018-07-04T07:18:24.245Z,31.9
2018-07-04T07:19:26.429Z,32
2018-07-04T07:20:28.617Z,32
2018-07-04T07:21:31.076Z,32.1
2018-07-04T07:22:33.524Z,32
2018-07-04T07:23:35.980Z,32
2018-07-04T07:24:38.442Z,32
2018-07-04T07:25:40.894Z,31.9
2018-07-04T07:26:43.358Z,32
2018-07-04T07:27:45.551Z,32
2018-07-04T07:28:47.462Z,32
2018-07-04T07:29:49.907Z,32
2018-07-04T07:30:52.095Z,32
2018-07-04T07:31:54.582Z,32
2018-07-04T07:32:56.689Z,32
2018-07-04T07:33:59.389Z,32
2018-07-04T07:35:01.729Z,31.9
2018-07-04T07:36:04.281Z,32
2018-07-04T07:37:06.779Z,32
2018-07-04T07:38:08.969Z,32
2018-07-04T07:39:11.444Z,32
2018-07-04T07:40:13.887Z,32
2018-07-04T07:41:16.330Z,32
2018-07-04T07:42:18.794Z,32
2018-07-04T07:43:20.970Z,32
2018-07-04T07:44:22.924Z,32
2018-07-04T07:45:25.197Z,32
2018-07-04T07:46:27.354Z,32.1
2018-07-04T07:47:29.839Z,32
2018-07-04T07:48:31.742Z,32
2018-07-04T07:49:33.909Z,32
2018-07-04T07:50:36.371Z,32.1
2018-07-04T07:51:38.818Z,32
2018-07-04T07:52:41.288Z,32
2018-07-04T07:53:43.758Z,32
2018-07-04T07:54:46.215Z,32.1
2018-07-04T07:55:48.104Z,32
2018-07-04T07:56:50.259Z,32
2018-07-04T07:57:52.163Z,32.1
2018-07-04T07:58:54.081Z,32
2018-07-04T07:59:56.249Z,32.1
2018-07-04T08:00:58.715Z,32
2018-07-04T08:02:00.866Z,32.1
2018-07-04T08:03:03.075Z,32
2018-07-04T08:04:05.362Z,32
2018-07-04T08:05:07.820Z,32
2018-07-04T08:06:09.993Z,32
2018-07-04T08:07:12.168Z,32.1
2018-07-04T08:08:14.079Z,32
2018-07-04T08:09:16.516Z,32
2018-07-04T08:10:18.986Z,32
2018-07-04T08:11:21.467Z,32.1
2018-07-04T08:12:23.662Z,31.9
2018-07-04T08:13:25.840Z,32
2018-07-04T08:14:28.025Z,32
2018-07-04T08:15:30.467Z,31.9
2018-07-04T08:16:32.653Z,32
2018-07-04T08:17:34.843Z,32
2018-07-04T08:18:37.301Z,32
2018-07-04T08:19:38.949Z,32
2018-07-04T08:20:41.139Z,32
2018-07-04T08:21:43.590Z,32
2018-07-04T08:22:45.274Z,32.1
2018-07-04T08:23:47.729Z,32
2018-07-04T08:24:50.186Z,32.1
2018-07-04T08:25:52.368Z,32
2018-07-04T08:26:54.553Z,32
2018-07-04T08:27:57.008Z,32.1
2018-07-04T08:28:59.196Z,32
2018-07-04T08:30:01.369Z,32
2018-07-04T08:31:03.273Z,32
2018-07-04T08:32:05.443Z,32.1
2018-07-04T08:33:07.636Z,32
2018-07-04T08:34:10.089Z,32.1
2018-07-04T08:35:12.539Z,32
2018-07-04T08:36:14.179Z,32
2018-07-04T08:37:16.336Z,32
2018-07-04T08:38:18.781Z,32.1
2018-07-04T08:39:21.095Z,32
2018-07-04T08:40:23.135Z,32
2018-07-04T08:41:25.577Z,32.1
2018-07-04T08:42:27.729Z,32
2018-07-04T08:43:30.182Z,31.9
2018-07-04T08:44:32.359Z,32
2018-07-04T08:45:34.247Z,32
2018-07-04T08:46:36.426Z,32
2018-07-04T08:47:38.610Z,32
2018-07-04T08:48:41.062Z,32.1
2018-07-04T08:49:43.249Z,32
2018-07-04T08:50:45.902Z,32
2018-07-04T08:51:48.758Z,32
2018-07-04T08:52:51.127Z,32.1
2018-07-04T08:53:54.064Z,32
2018-07-04T08:54:56.588Z,32
2018-07-04T08:55:58.598Z,32.1
2018-07-04T08:57:01.116Z,32
2018-07-04T08:58:03.066Z,32
2018-07-04T08:59:05.319Z,32.1
2018-07-04T09:00:07.360Z,32.1
2018-07-04T09:01:09.758Z,32.1
2018-07-04T09:02:12.212Z,32.1
2018-07-04T09:03:14.432Z,32.1
2018-07-04T09:04:16.336Z,32.1
2018-07-04T09:05:18.244Z,32.1
2018-07-04T09:06:20.702Z,32.2
2018-07-04T09:07:23.150Z,32.2
2018-07-04T09:08:25.087Z,32.2
2018-07-04T09:09:27.270Z,32.1
2018-07-04T09:10:29.183Z,32.2
2018-07-04T09:11:31.131Z,32.3
2018-07-04T09:12:33.467Z,32.3
2018-07-04T09:13:35.911Z,32.4
2018-07-04T09:14:38.092Z,32.5
2018-07-04T09:15:40.265Z,32.5
2018-07-04T09:16:42.442Z,32.3
2018-07-04T09:17:44.079Z,32.4
2018-07-04T09:18:46.569Z,32.5
2018-07-04T09:19:48.753Z,32.5
2018-07-04T09:20:51.203Z,32.4
2018-07-04T09:21:53.665Z,32.5
2018-07-04T09:22:55.571Z,32.5
2018-07-04T09:23:57.458Z,32.6
2018-07-04T09:24:59.667Z,32.5
2018-07-04T09:26:02.108Z,32.6
2018-07-04T09:27:04.298Z,32.4
2018-07-04T09:28:06.769Z,32.5
2018-07-04T09:29:09.229Z,32.6
2018-07-04T09:30:11.421Z,32.7
2018-07-04T09:31:13.884Z,32.6
2018-07-04T09:32:16.030Z,32.8
2018-07-04T09:33:18.468Z,32.5
2018-07-04T09:34:20.923Z,32.7
2018-07-04T09:35:23.101Z,32.6
2018-07-04T09:36:25.292Z,32.9
2018-07-04T09:37:27.744Z,32.8
2018-07-04T09:38:30.316Z,32.7
2018-07-04T09:39:33.090Z,32.7
2018-07-04T09:40:35.537Z,32.6
2018-07-04T09:41:37.464Z,32.7
2018-07-04T09:42:39.631Z,32.7
2018-07-04T09:43:41.801Z,32.7
2018-07-04T09:44:44.266Z,32.7
2018-07-04T09:45:46.454Z,32.7
2018-07-04T09:46:48.900Z,32.7
2018-07-04T09:47:51.110Z,32.8
2018-07-04T09:48:53.254Z,32.8
2018-07-04T09:49:55.163Z,32.6
2018-07-04T09:50:57.614Z,32.8
2018-07-04T09:52:00.066Z,32.7
2018-07-04T09:53:02.299Z,32.8
2018-07-04T09:54:04.197Z,32.8
2018-07-04T09:55:05.859Z,32.8
2018-07-04T09:56:07.781Z,32.8
2018-07-04T09:57:09.698Z,32.8
2018-07-04T09:58:11.903Z,32.9
2018-07-04T09:59:14.383Z,32.8
2018-07-04T10:00:16.305Z,32.8
2018-07-04T10:01:18.178Z,32.8
2018-07-04T10:02:20.350Z,32.9
2018-07-04T10:03:22.834Z,33
2018-07-04T10:04:24.977Z,32.9
2018-07-04T10:05:26.851Z,32.9
2018-07-04T10:06:28.751Z,32.9
2018-07-04T10:07:30.388Z,32.8
2018-07-04T10:08:32.554Z,32.9
2018-07-04T10:09:35.000Z,33
2018-07-04T10:10:37.455Z,33
2018-07-04T10:11:39.653Z,32.9
2018-07-04T10:12:42.175Z,32.9
2018-07-04T10:13:44.968Z,32.9
2018-07-04T10:14:47.413Z,32.9
2018-07-04T10:15:49.322Z,32.8
2018-07-04T10:16:51.778Z,32.9
2018-07-04T10:17:53.660Z,32.8
2018-07-04T10:18:56.107Z,32.9
2018-07-04T10:19:58.569Z,32.8
2018-07-04T10:21:00.787Z,33
2018-07-04T10:22:03.029Z,32.8
2018-07-04T10:23:05.503Z,32.9
2018-07-04T10:24:07.979Z,33
2018-07-04T10:25:09.905Z,33
2018-07-04T10:26:12.349Z,32.8
2018-07-04T10:27:14.228Z,32.9
2018-07-04T10:28:15.858Z,33
2018-07-04T10:29:18.046Z,32.9
2018-07-04T10:30:19.959Z,32.8
2018-07-04T10:31:22.400Z,33
2018-07-04T10:32:24.851Z,32.9
2018-07-04T10:33:27.314Z,32.8
2018-07-04T10:34:29.758Z,32.9
2018-07-04T10:35:31.931Z,32.9
2018-07-04T10:36:33.839Z,32.9
2018-07-04T10:37:36.046Z,33
2018-07-04T10:38:38.582Z,32.9
2018-07-04T10:39:40.566Z,32.8
2018-07-04T10:40:43.041Z,32.9
2018-07-04T10:41:44.939Z,32.9
2018-07-04T10:42:47.134Z,32.9
2018-07-04T10:43:49.574Z,32.8
2018-07-04T10:44:51.869Z,32.9
2018-07-04T10:45:54.354Z,32.8
2018-07-04T10:46:56.515Z,32.7
2018-07-04T10:47:58.970Z,32.9
2018-07-04T10:49:01.431Z,32.8
2018-07-04T10:50:03.625Z,32.9
2018-07-04T10:51:06.103Z,32.9
2018-07-04T10:52:08.298Z,32.8
2018-07-04T10:53:10.766Z,32.8
2018-07-04T10:54:13.216Z,32.8
2018-07-04T10:55:15.104Z,32.9
2018-07-04T10:56:17.544Z,32.9
2018-07-04T10:57:19.984Z,32.8
2018-07-04T10:58:22.145Z,32.8
2018-07-04T10:59:24.317Z,32.9
2018-07-04T11:00:26.481Z,32.8
2018-07-04T11:01:28.940Z,32.9
2018-07-04T11:02:31.170Z,32.8
2018-07-04T11:03:33.355Z,32.8
2018-07-04T11:04:35.850Z,32.9
2018-07-04T11:05:38.531Z,32.9
2018-07-04T11:06:40.136Z,33
2018-07-04T11:07:42.305Z,33
2018-07-04T11:08:44.978Z,32.9
2018-07-04T11:09:47.167Z,32.8
2018-07-04T11:10:49.618Z,32.8
2018-07-04T11:11:51.547Z,33
2018-07-04T11:12:53.992Z,33
2018-07-04T11:13:56.176Z,32.9
2018-07-04T11:14:58.352Z,32.9
2018-07-04T11:16:00.806Z,32.8
2018-07-04T11:17:03.567Z,32.6
2018-07-04T11:18:06.148Z,32.8
2018-07-04T11:19:08.359Z,33
2018-07-04T11:20:10.514Z,32.8
2018-07-04T11:21:12.401Z,32.7
2018-07-04T11:22:14.895Z,32.9
2018-07-04T11:23:17.407Z,32.8
2018-07-04T11:24:19.609Z,32.9
2018-07-04T11:25:21.526Z,32.8
2018-07-04T11:26:23.687Z,33
2018-07-04T11:27:25.883Z,32.9
2018-07-04T11:28:28.069Z,32.8
2018-07-04T11:29:30.387Z,33
2018-07-04T11:30:32.842Z,32.8
2018-07-04T11:31:35.033Z,32.7
2018-07-04T11:32:37.493Z,32.7
2018-07-04T11:33:39.680Z,32.8
2018-07-04T11:34:41.613Z,32.9
2018-07-04T11:35:43.209Z,32.7
2018-07-04T11:36:45.660Z,32.8
2018-07-04T11:37:48.108Z,32.7
2018-07-04T11:38:50.293Z,32.7
2018-07-04T11:39:52.468Z,32.8
2018-07-04T11:40:54.918Z,32.8
2018-07-04T11:41:57.381Z,32.8
2018-07-04T11:42:59.829Z,32.9
2018-07-04T11:44:01.989Z,32.8
2018-07-04T11:45:03.904Z,32.6
2018-07-04T11:46:06.360Z,32.8
2018-07-04T11:47:08.825Z,32.8
2018-07-04T11:48:11.326Z,32.8
2018-07-04T11:49:13.580Z,32.9
2018-07-04T11:50:16.037Z,32.7
2018-07-04T11:51:18.484Z,32.7
2018-07-04T11:52:20.669Z,32.9
2018-07-04T11:53:22.320Z,32.9
2018-07-04T11:54:24.769Z,32.8
2018-07-04T11:55:27.239Z,32.8
2018-07-04T11:56:29.796Z,32.7
2018-07-04T11:57:32.403Z,32.8
2018-07-04T11:58:34.864Z,32.6
2018-07-04T11:59:37.318Z,32.7
2018-07-04T12:00:39.476Z,32.9
2018-07-04T12:01:41.456Z,32.7
2018-07-04T12:02:43.972Z,32.6
2018-07-04T12:03:46.222Z,32.6
2018-07-04T12:04:48.671Z,32.6
2018-07-04T12:05:50.825Z,32.7
2018-07-04T12:06:53.013Z,32.7
2018-07-04T12:07:55.471Z,32.7
2018-07-04T12:08:57.670Z,32.8
2018-07-04T12:09:59.583Z,32.7
2018-07-04T12:11:02.005Z,32.7
2018-07-04T12:12:04.422Z,32.7
2018-07-04T12:13:06.569Z,32.7
2018-07-04T12:14:09.061Z,32.7
2018-07-04T12:15:11.504Z,32.6
2018-07-04T12:16:13.666Z,32.6
2018-07-04T12:17:15.849Z,32.7
2018-07-04T12:18:18.029Z,32.7
2018-07-04T12:19:20.475Z,32.6
2018-07-04T12:20:22.928Z,32.7
2018-07-04T12:21:25.440Z,32.6
2018-07-04T12:22:27.482Z,32.7
2018-07-04T12:23:29.736Z,32.6
2018-07-04T12:24:31.973Z,32.6
2018-07-04T12:25:34.161Z,32.7
2018-07-04T12:26:36.184Z,32.6
2018-07-04T12:27:38.509Z,32.5
2018-07-04T12:28:40.694Z,32.6
2018-07-04T12:29:42.868Z,32.5
2018-07-04T12:30:45.326Z,32.6
2018-07-04T12:31:47.786Z,32.7
2018-07-04T12:32:50.249Z,32.6
2018-07-04T12:33:52.487Z,32.6
2018-07-04T12:34:54.718Z,32.8
2018-07-04T12:35:56.625Z,32.7
2018-07-04T12:36:58.537Z,32.7
2018-07-04T12:38:01.035Z,32.7
2018-07-04T12:39:03.225Z,32.5
2018-07-04T12:40:05.402Z,32.6
2018-07-04T12:41:07.328Z,32.7
2018-07-04T12:42:09.768Z,32.7
2018-07-04T12:43:12.230Z,32.8
2018-07-04T12:44:14.729Z,32.8
2018-07-04T12:45:17.023Z,32.7
2018-07-04T12:46:19.485Z,32.9
2018-07-04T12:47:21.601Z,32.8
2018-07-04T12:48:24.148Z,32.7
2018-07-04T12:49:26.316Z,32.8
2018-07-04T12:50:28.268Z,32.9
2018-07-04T12:51:30.443Z,32.8
2018-07-04T12:52:32.903Z,33
2018-07-04T12:53:35.081Z,32.8
2018-07-04T12:54:37.462Z,32.9
2018-07-04T12:55:40.509Z,33
2018-07-04T12:56:42.965Z,32.8
2018-07-04T12:57:44.882Z,32.9
2018-07-04T12:58:47.078Z,32.9
2018-07-04T12:59:49.255Z,33
2018-07-04T13:00:51.599Z,33
2018-07-04T13:01:54.148Z,33
2018-07-04T13:02:56.718Z,33.2
2018-07-04T13:03:59.299Z,33
2018-07-04T13:05:01.769Z,33.1
2018-07-04T13:06:04.233Z,33.2
2018-07-04T13:07:06.682Z,33
2018-07-04T13:08:09.153Z,33.1
2018-07-04T13:09:11.311Z,33.1
2018-07-04T13:10:13.762Z,33
2018-07-04T13:11:16.210Z,33.1
2018-07-04T13:12:18.403Z,33.1
2018-07-04T13:13:20.559Z,33
2018-07-04T13:14:22.728Z,33
2018-07-04T13:15:25.202Z,33
2018-07-04T13:16:27.374Z,32.9
2018-07-04T13:17:29.842Z,33.1
2018-07-04T13:18:31.727Z,33.1
2018-07-04T13:19:34.270Z,33
2018-07-04T13:20:36.875Z,33.1
2018-07-04T13:21:38.760Z,33
2018-07-04T13:22:41.210Z,33
2018-07-04T13:23:43.393Z,33
2018-07-04T13:24:45.727Z,33.1
2018-07-04T13:25:47.877Z,33
2018-07-04T13:26:50.497Z,32.9
2018-07-04T13:27:52.670Z,33
2018-07-04T13:28:54.870Z,33
2018-07-04T13:29:57.049Z,33.1
2018-07-04T13:30:59.229Z,33
2018-07-04T13:32:01.831Z,32.9
2018-07-04T13:33:04.191Z,32.9
2018-07-04T13:34:06.630Z,32.9
2018-07-04T13:35:09.130Z,33
2018-07-04T13:36:11.588Z,33
2018-07-04T13:37:13.775Z,33
2018-07-04T13:38:16.227Z,32.9
2018-07-04T13:39:18.678Z,33.1
2018-07-04T13:40:20.929Z,33
2018-07-04T13:41:22.836Z,33.1
2018-07-04T13:42:25.269Z,33
2018-07-04T13:43:27.726Z,32.8
2018-07-04T13:44:29.959Z,33
2018-07-04T13:45:31.646Z,32.9
2018-07-04T13:46:34.095Z,33
2018-07-04T13:47:36.563Z,33
2018-07-04T13:48:38.758Z,32.9
2018-07-04T13:49:40.970Z,33
2018-07-04T13:50:43.580Z,32.9
2018-07-04T13:51:46.045Z,33
2018-07-04T13:52:48.498Z,33
2018-07-04T13:53:50.691Z,32.9
2018-07-04T13:54:52.876Z,33
2018-07-04T13:55:55.059Z,32.9
2018-07-04T13:56:57.498Z,33.1
2018-07-04T13:57:59.427Z,32.8
2018-07-04T13:59:01.681Z,32.7
2018-07-04T14:00:04.288Z,32.9
2018-07-04T14:01:06.564Z,32.8
2018-07-04T14:02:08.441Z,32.9
2018-07-04T14:03:10.999Z,32.8
2018-07-04T14:04:13.799Z,33
2018-07-04T14:05:16.092Z,32.9
2018-07-04T14:06:18.546Z,32.9
2018-07-04T14:07:20.437Z,32.9